LIMELSZL

Guest
Details From LIME - Bergamo Orio Al Serio
To LSZL - Locarno
Flight Number -
Tags generated
Created
Modified
Stats Distance 46 nm / 85 km
Max Altitude 0 ft / 0 m
Waypoints 3
Social Downloads 2
Likes 0
Share VATSIM

Download

Looking for another format? Having issues loading an existing format? Contact us
Advertisement - Login to hide

Notes

Basic altitude profile: - Ascent Rate: 2500ft/min - Ascent Speed: 250kts - Cruise Altitude: 35000ft - Cruise Speed: 420kts - Descent Rate: 1500ft/min - Descent Speed: 250kts Options: - Use NATs: yes - Use PACOTS: yes - Use low airways: yes - Use high airways: yes

Route

LIME CANNE LSZL

ID Type Via Altitude Latitude Longitude Leg Dist Tot Dist Heading (true) Name
O LIME APT - 0 ft / 0 m 45.67200˚ 9.70689˚ - 0 nm - Bergamo Orio Al Serio
CANNE FIX - 0 ft / 0 m 46.16667˚ 8.88111˚ 45 nm 45 nm 311° / 310° -
O LSZL APT - 0 ft / 0 m 46.16262˚ 8.87987˚ 0 nm 45 nm 192° / 192° Locarno

Altitude Profile

Advertisement - Login to hide

LIME

Details ICAO LIME (BGY)
Name Bergamo Orio Al Serio
Region Italy
Timezone Europe/Rome (UTC+1.0)
Stats Elevation 779 ft / 237 m (AMSL)
Location 45.672004° 9.706892°
Runways 2
Magnetic Variation 2.602° E

METAR

LIME 121120Z 25007KT 9999 FEW100 10/04 Q1008 NOSIG

Decode

TAF

TAF LIME 120500Z 1206/1306 VRB05KT 4000 BR SCT020 SCT070 BECMG 1208/1210 7000 TEMPO 1300/1306 0400 FZFG

Decode

Departure Runways

ID Width Length Bearing (true) Bearing (mag) Surface Threshold Offset Overrun Length
10 148 ft / 45 m 9,897 ft / 3,017 m 104.89° 102.29° Asphalt 312 ft / 95 m 0 ft / 0 m
12 59 ft / 18 m 2,665 ft / 812 m 121.47° 118.87° Asphalt 197 ft / 60 m 0 ft / 0 m
28 148 ft / 45 m 9,897 ft / 3,017 m 284.91° 282.31° Asphalt 712 ft / 217 m 0 ft / 0 m
30 59 ft / 18 m 2,665 ft / 812 m 301.48° 298.88° Asphalt 312 ft / 95 m 0 ft / 0 m

LSZL

Details ICAO LSZL (ZJI)
Name Locarno
Region Switzerland
Timezone Europe/Zurich (UTC+1.0)
Stats Elevation 650 ft / 198 m (AMSL)
Location 46.162618° 8.879874°
Runways 3
Magnetic Variation 2.417° E

METAR

LSZL 121050Z 00000KT 9999 FEW045 SCT065 03/01 Q1009 RMK BLU+

Decode

TAF

Not found

Destination Runways

ID Width Length Bearing (true) Bearing (mag) Surface Threshold Offset Overrun Length
08C 98 ft / 30 m 2,298 ft / 700 m 80.00° 77.58° Grass 0 ft / 0 m 0 ft / 0 m
08L 75 ft / 23 m 2,626 ft / 801 m 80.00° 77.58° Asphalt 0 ft / 0 m 0 ft / 0 m
08R 98 ft / 30 m 2,298 ft / 700 m 80.00° 77.58° Grass 0 ft / 0 m 0 ft / 0 m
26C 98 ft / 30 m 2,298 ft / 700 m 260.00° 257.58° Grass 0 ft / 0 m 0 ft / 0 m
26L 98 ft / 30 m 2,298 ft / 700 m 260.00° 257.58° Grass 0 ft / 0 m 0 ft / 0 m
26R 75 ft / 23 m 2,626 ft / 801 m 260.00° 257.58° Asphalt 0 ft / 0 m 0 ft / 0 m

Popular Alternatives